createdAt,value
2022-12-05T00:02:26.400Z,9.45
2022-12-05T00:04:55.509Z,12.13
2022-12-05T00:07:26.479Z,9.18
2022-12-05T00:09:56.482Z,10.15
2022-12-05T00:12:26.036Z,8.10
2022-12-05T00:14:56.697Z,13.70
2022-12-05T00:17:26.532Z,9.07
2022-12-05T00:19:57.091Z,5.80
2022-12-05T00:22:27.160Z,11.15
2022-12-05T00:24:56.436Z,10.40
2022-12-05T00:27:25.655Z,9.60
2022-12-05T00:29:56.953Z,8.75
2022-12-05T00:32:26.417Z,10.13
2022-12-05T00:34:55.874Z,12.05
2022-12-05T00:37:25.435Z,11.02
2022-12-05T00:39:54.984Z,10.50
2022-12-05T00:42:25.163Z,9.80
2022-12-05T00:44:54.472Z,11.13
2022-12-05T00:47:25.475Z,8.73
2022-12-05T00:49:54.913Z,10.73
2022-12-05T00:52:24.435Z,13.30
2022-12-05T00:54:53.663Z,11.90
2022-12-05T00:57:23.415Z,11.13
2022-12-05T00:59:53.151Z,8.65
2022-12-05T01:02:22.846Z,5.63
2022-12-05T01:04:53.365Z,8.73
2022-12-05T01:07:22.505Z,7.82
2022-12-05T01:09:51.613Z,10.13
2022-12-05T01:12:21.012Z,8.48
2022-12-05T01:14:50.377Z,9.65
2022-12-05T01:17:19.823Z,10.70
2022-12-05T01:19:49.219Z,9.38
2022-12-05T01:22:19.696Z,9.30
2022-12-05T01:24:48.935Z,12.68
2022-12-05T01:27:18.297Z,9.63
2022-12-05T01:29:47.637Z,10.73
2022-12-05T01:32:16.610Z,11.43
2022-12-05T01:34:46.431Z,5.53
2022-12-05T01:37:15.810Z,9.75
2022-12-05T01:39:46.508Z,11.60
2022-12-05T01:42:15.602Z,10.32
2022-12-05T01:45:07.773Z,11.82
2022-12-05T01:47:38.613Z,10.52
2022-12-05T01:50:09.414Z,7.35
2022-12-05T01:52:39.756Z,7.43
2022-12-05T01:55:14.220Z,11.02
2022-12-05T01:57:44.054Z,11.30
2022-12-05T02:00:17.167Z,8.50
2022-12-05T02:02:50.747Z,9.02
2022-12-05T02:05:23.554Z,10.18
2022-12-05T02:07:53.707Z,12.70
2022-12-05T02:10:25.400Z,8.25
2022-12-05T02:13:01.727Z,9.60
2022-12-05T02:15:43.212Z,9.65
2022-12-05T02:18:29.997Z,10.95
2022-12-05T02:21:15.764Z,9.77
2022-12-05T02:24:13.176Z,10.38
2022-12-05T02:27:01.744Z,20.63
2022-12-05T02:30:12.518Z,15.77
2022-12-05T02:33:07.342Z,9.75
2022-12-05T02:35:43.382Z,10.65
2022-12-05T02:38:26.288Z,12.27
2022-12-05T02:41:04.613Z,13.30
2022-12-05T02:43:40.341Z,8.63
2022-12-05T02:46:12.885Z,11.75
2022-12-05T02:48:46.753Z,13.30
2022-12-05T02:51:21.412Z,13.27
2022-12-05T02:53:51.939Z,10.45
2022-12-05T02:56:22.007Z,6.43
2022-12-05T02:58:55.246Z,14.00
2022-12-05T03:01:30.505Z,8.88
2022-12-05T03:04:04.179Z,8.02
2022-12-05T03:09:09.141Z,9.05
2022-12-05T03:14:16.300Z,17.27
2022-12-05T03:16:52.159Z,12.10
2022-12-05T03:19:28.308Z,9.63
2022-12-05T03:22:02.998Z,10.70
2022-12-05T03:24:36.530Z,10.68
2022-12-05T03:27:12.463Z,13.70
2022-12-05T03:29:50.446Z,9.80
2022-12-05T03:32:26.549Z,7.68
2022-12-05T03:35:08.231Z,9.98
2022-12-05T03:37:47.779Z,12.80
2022-12-05T03:40:27.853Z,10.13
2022-12-05T03:43:09.435Z,9.73
2022-12-05T03:45:48.326Z,8.65
2022-12-05T03:48:24.689Z,9.82
2022-12-05T03:50:57.616Z,11.20
2022-12-05T03:53:30.320Z,6.33
2022-12-05T03:56:05.475Z,6.18
2022-12-05T03:58:40.091Z,11.88
2022-12-05T04:01:12.041Z,8.45
2022-12-05T04:03:45.142Z,8.88
2022-12-05T04:06:25.112Z,14.50
2022-12-05T04:08:59.174Z,9.52
2022-12-05T04:11:33.067Z,12.40
2022-12-05T04:14:07.774Z,13.10
2022-12-05T04:17:00.371Z,9.60
2022-12-05T04:19:54.120Z,10.10
2022-12-05T04:22:25.500Z,11.75
2022-12-05T04:25:15.086Z,8.70
2022-12-05T04:27:52.737Z,10.57
2022-12-05T04:30:24.776Z,9.57
2022-12-05T04:33:04.216Z,13.23
2022-12-05T04:35:38.238Z,12.10
2022-12-05T04:38:13.266Z,8.00
2022-12-05T04:40:50.084Z,8.85
2022-12-05T04:43:21.418Z,12.43
2022-12-05T04:45:53.654Z,8.13
2022-12-05T04:48:26.742Z,8.65
2022-12-05T04:50:57.908Z,9.75
2022-12-05T04:53:32.556Z,12.07
2022-12-05T04:56:03.860Z,9.68
2022-12-05T04:58:35.414Z,11.05
2022-12-05T05:01:09.326Z,11.77
2022-12-05T05:03:47.449Z,10.70
2022-12-05T05:06:18.414Z,9.70
2022-12-05T05:08:52.075Z,11.00
2022-12-05T05:11:24.388Z,12.50
2022-12-05T05:13:54.560Z,6.72
2022-12-05T05:16:26.392Z,10.05
2022-12-05T05:18:56.146Z,12.23
2022-12-05T05:21:28.359Z,8.57
2022-12-05T05:24:00.125Z,13.38
2022-12-05T05:26:30.737Z,10.82
2022-12-05T05:29:00.422Z,8.85
2022-12-05T05:31:32.582Z,10.63
2022-12-05T05:34:07.623Z,9.40
2022-12-05T05:36:45.479Z,10.93
2022-12-05T05:39:17.980Z,11.35
2022-12-05T05:41:47.245Z,8.15
2022-12-05T05:44:16.786Z,10.15
2022-12-05T05:46:46.316Z,9.70
2022-12-05T05:49:15.998Z,9.15
2022-12-05T05:51:45.293Z,13.65
2022-12-05T05:54:16.210Z,10.40
2022-12-05T05:56:45.790Z,13.73
2022-12-05T05:59:15.246Z,13.20
2022-12-05T06:01:45.179Z,14.35
2022-12-05T06:04:15.246Z,11.70
2022-12-05T06:06:45.923Z,14.05
2022-12-05T06:09:16.895Z,12.75
2022-12-05T06:11:47.370Z,15.00
2022-12-05T06:14:17.403Z,13.15
2022-12-05T06:16:48.408Z,16.75
2022-12-05T06:21:51.436Z,8.50
2022-12-05T06:24:28.130Z,17.88
2022-12-05T06:29:33.835Z,12.73
2022-12-05T06:32:06.545Z,14.20
2022-12-05T06:34:35.937Z,12.98
2022-12-05T06:37:08.666Z,15.52
2022-12-05T06:39:40.014Z,13.15
2022-12-05T06:42:09.995Z,15.18
2022-12-05T06:44:41.571Z,15.73
2022-12-05T06:47:11.311Z,13.15
2022-12-05T06:49:40.652Z,16.73
2022-12-05T06:52:10.463Z,13.07
2022-12-05T06:54:41.145Z,17.45
2022-12-05T06:57:11.050Z,18.85
2022-12-05T06:59:40.610Z,14.50
2022-12-05T07:02:15.151Z,15.30
2022-12-05T07:04:44.618Z,11.98
2022-12-05T07:07:16.194Z,12.77
2022-12-05T07:09:48.669Z,12.40
2022-12-05T07:12:20.008Z,17.10
2022-12-05T07:14:50.254Z,21.20
2022-12-05T07:17:21.506Z,15.48
2022-12-05T07:19:51.526Z,14.25
2022-12-05T07:22:22.568Z,17.23
2022-12-05T07:24:54.395Z,13.90
2022-12-05T07:27:27.634Z,15.48
2022-12-05T07:29:58.047Z,15.85
2022-12-05T07:32:28.044Z,18.25
2022-12-05T07:34:57.558Z,13.77
2022-12-05T07:37:26.912Z,14.00
2022-12-05T07:39:58.373Z,17.67
2022-12-05T07:42:28.018Z,17.48
2022-12-05T07:44:57.774Z,14.30
2022-12-05T07:47:27.766Z,16.30
2022-12-05T10:45:59.855Z,27.55
2022-12-05T10:48:58.710Z,20.08
2022-12-05T10:51:34.215Z,18.90
2022-12-05T10:54:18.448Z,22.58
2022-12-05T10:56:49.380Z,24.33
2022-12-05T10:59:21.277Z,17.10
2022-12-05T11:01:55.148Z,22.00
2022-12-05T11:04:31.515Z,26.63
2022-12-05T11:07:02.556Z,20.05
2022-12-05T11:09:40.353Z,23.83
2022-12-05T11:12:19.502Z,18.90
2022-12-05T11:15:01.026Z,21.50
2022-12-05T11:17:35.612Z,19.15
2022-12-05T11:20:27.966Z,23.58
2022-12-05T11:23:01.411Z,16.13
2022-12-05T11:25:37.473Z,18.85
2022-12-05T11:28:34.209Z,22.15
2022-12-05T11:31:05.413Z,17.25
2022-12-05T11:33:37.538Z,24.40
2022-12-05T11:36:14.543Z,16.15
2022-12-05T11:38:44.032Z,22.50
2022-12-05T11:41:36.339Z,20.45
2022-12-05T11:44:24.418Z,19.98
2022-12-05T11:47:06.681Z,17.20
2022-12-05T11:49:55.598Z,20.00
2022-12-05T11:52:40.674Z,23.17
2022-12-05T11:55:17.871Z,23.77
2022-12-05T11:58:11.427Z,17.88
2022-12-05T12:00:56.219Z,16.02
2022-12-05T12:03:45.703Z,15.23
2022-12-05T12:06:48.201Z,20.65
2022-12-05T12:09:33.508Z,15.65
2022-12-05T12:12:11.052Z,19.27
2022-12-05T12:15:00.038Z,22.70
2022-12-05T12:17:42.871Z,19.13
2022-12-05T12:20:35.216Z,18.73
2022-12-05T12:23:27.822Z,17.85
2022-12-05T12:26:12.452Z,17.75
2022-12-05T12:28:47.956Z,24.67
2022-12-05T12:31:36.308Z,17.58
2022-12-05T12:34:38.792Z,17.77
2022-12-05T12:37:18.284Z,13.57
2022-12-05T12:39:54.741Z,22.02
2022-12-05T12:42:32.640Z,26.17
2022-12-05T12:45:27.325Z,21.60
2022-12-05T12:48:20.200Z,20.55
2022-12-05T12:50:54.099Z,17.95
2022-12-05T12:53:57.352Z,20.23
2022-12-05T12:56:39.109Z,16.13
2022-12-05T12:59:24.510Z,21.67
2022-12-05T13:01:59.904Z,17.27
2022-12-05T13:04:40.637Z,20.88
2022-12-05T13:07:15.428Z,24.17
2022-12-05T13:09:54.347Z,17.90
2022-12-05T13:12:31.964Z,21.08
2022-12-05T13:15:10.101Z,19.98
2022-12-05T13:17:43.042Z,21.17
2022-12-05T13:20:18.744Z,20.47
2022-12-05T13:22:50.749Z,18.63
2022-12-05T13:25:28.616Z,20.80
2022-12-05T13:28:04.384Z,19.42
2022-12-05T13:30:57.027Z,22.13
2022-12-05T13:33:28.684Z,21.95
2022-12-05T13:36:21.479Z,24.00
2022-12-05T13:39:08.604Z,22.58
2022-12-05T13:42:02.553Z,22.05
2022-12-05T13:44:39.069Z,21.73
2022-12-05T13:47:16.861Z,26.77
2022-12-05T13:49:51.019Z,17.60
2022-12-05T13:52:27.139Z,21.15
2022-12-05T13:55:04.172Z,21.58
2022-12-05T13:57:54.052Z,22.80
2022-12-05T14:00:31.905Z,23.08
2022-12-05T14:03:16.329Z,22.75
2022-12-05T14:05:51.758Z,21.67
2022-12-05T14:09:04.849Z,29.90
2022-12-05T14:11:34.368Z,22.10
2022-12-05T14:14:04.838Z,24.40
2022-12-05T14:16:46.349Z,23.52
2022-12-05T14:19:37.253Z,23.73
2022-12-05T14:22:29.778Z,24.00
2022-12-05T14:25:07.911Z,26.45
2022-12-05T14:27:50.835Z,23.67
2022-12-05T14:30:25.076Z,24.15
2022-12-05T14:32:56.400Z,27.33
2022-12-05T14:35:31.131Z,20.90
2022-12-05T14:38:03.833Z,26.23
2022-12-05T14:40:35.489Z,26.05
2022-12-05T14:43:07.387Z,34.17
2022-12-05T14:45:39.532Z,26.92
2022-12-05T14:48:30.743Z,33.95
2022-12-05T14:51:04.855Z,25.83
2022-12-05T14:53:39.680Z,28.10
2022-12-05T14:56:18.684Z,28.83
2022-12-05T14:58:52.003Z,23.30
2022-12-05T15:01:24.935Z,18.67
2022-12-05T15:04:17.492Z,23.33
2022-12-05T15:06:50.291Z,23.23
2022-12-05T15:09:51.005Z,18.48
2022-12-05T15:12:24.152Z,17.13
2022-12-05T15:15:02.110Z,22.33
2022-12-05T15:17:39.117Z,19.35
2022-12-05T15:20:18.021Z,22.58
2022-12-05T15:22:48.196Z,19.13
2022-12-05T15:25:24.434Z,21.30
2022-12-05T15:27:59.469Z,20.10
2022-12-05T15:30:30.474Z,18.88
2022-12-05T15:33:01.009Z,17.77
2022-12-05T15:35:35.417Z,20.40
2022-12-05T15:38:10.708Z,16.20
2022-12-05T15:40:39.810Z,17.30
2022-12-05T15:43:32.348Z,18.38
2022-12-05T15:46:24.095Z,19.05
2022-12-05T15:48:55.229Z,17.33
2022-12-05T15:51:32.271Z,19.67
2022-12-05T15:54:08.942Z,16.83
2022-12-05T15:56:43.593Z,16.30
2022-12-05T15:59:20.088Z,18.65
2022-12-05T16:01:56.424Z,19.08
2022-12-05T16:04:36.131Z,15.38
2022-12-05T16:07:09.915Z,18.90
2022-12-05T16:12:40.079Z,19.05
2022-12-05T19:19:00.816Z,17.83
2022-12-05T19:21:33.612Z,16.27
2022-12-05T19:24:07.564Z,16.65
2022-12-05T19:26:39.313Z,18.40
2022-12-05T19:29:15.902Z,16.90
2022-12-05T19:31:47.698Z,20.23
2022-12-05T19:34:21.878Z,18.58
2022-12-05T19:36:59.987Z,15.68
2022-12-05T19:39:33.309Z,19.38
2022-12-05T19:42:08.449Z,15.25
2022-12-05T19:44:38.630Z,19.13
2022-12-05T19:47:09.204Z,18.40
2022-12-05T19:49:46.090Z,22.83
2022-12-05T19:53:14.208Z,20.50
2022-12-05T19:55:51.718Z,16.60
2022-12-05T19:58:25.854Z,19.52
2022-12-05T20:02:19.602Z,15.38
2022-12-05T20:05:47.897Z,16.05
2022-12-05T20:08:43.374Z,15.15
2022-12-05T20:11:33.768Z,15.20
2022-12-05T20:14:07.386Z,18.35
2022-12-05T20:21:44.891Z,15.80
2022-12-05T20:24:18.509Z,17.45
2022-12-05T20:26:54.241Z,21.20
2022-12-05T20:29:34.129Z,15.43
2022-12-05T20:32:11.655Z,21.77
2022-12-05T20:34:59.592Z,15.57
2022-12-05T20:37:35.743Z,12.25
2022-12-05T20:40:08.743Z,21.30
2022-12-05T20:42:46.621Z,16.40
2022-12-05T20:45:17.307Z,14.93
2022-12-05T20:47:51.756Z,18.42
2022-12-05T20:50:25.095Z,22.05
2022-12-05T20:53:01.565Z,15.65
2022-12-05T20:55:36.228Z,17.55
2022-12-05T20:58:11.081Z,18.58
2022-12-05T21:00:51.001Z,13.95
2022-12-05T21:03:21.260Z,11.13
2022-12-05T21:05:56.857Z,15.50
2022-12-05T21:08:29.887Z,16.25
2022-12-05T21:10:59.604Z,15.52
2022-12-05T21:13:33.133Z,13.43
2022-12-05T21:16:07.846Z,14.57
2022-12-05T21:18:39.899Z,23.77
2022-12-05T21:21:16.206Z,15.05
2022-12-05T21:23:51.011Z,16.67
2022-12-05T21:27:17.629Z,14.52
2022-12-05T21:29:47.957Z,21.23
2022-12-05T21:32:30.047Z,16.10
2022-12-05T21:35:03.913Z,16.33
2022-12-05T21:37:38.653Z,15.50
2022-12-05T21:40:22.281Z,14.70
2022-12-05T21:43:03.676Z,18.95
2022-12-05T21:45:43.348Z,15.30
2022-12-05T21:48:15.428Z,14.65
2022-12-05T21:50:47.580Z,14.07
2022-12-05T21:53:17.706Z,15.95
2022-12-05T21:55:52.324Z,19.23
2022-12-05T21:58:25.575Z,17.70
2022-12-05T22:00:59.384Z,15.38
2022-12-05T22:06:07.227Z,15.50
2022-12-05T22:08:41.014Z,24.90
2022-12-05T22:11:13.591Z,17.75
2022-12-05T22:13:44.758Z,16.38
2022-12-05T22:16:16.150Z,23.33
2022-12-05T22:18:46.494Z,17.05
2022-12-05T22:21:18.311Z,13.73
2022-12-05T22:23:53.054Z,17.52
2022-12-05T22:26:26.148Z,14.13
2022-12-05T22:28:57.475Z,21.08
2022-12-05T22:31:30.367Z,13.95
2022-12-05T22:34:00.985Z,19.35
2022-12-05T22:36:34.203Z,26.42
2022-12-05T22:39:04.721Z,18.48
2022-12-05T22:41:35.801Z,20.15
2022-12-05T22:44:05.528Z,25.95
2022-12-05T22:46:37.222Z,17.73
2022-12-05T22:49:06.723Z,22.10
2022-12-05T22:51:37.303Z,18.40
2022-12-05T22:54:10.542Z,16.58
2022-12-05T22:56:44.007Z,23.70
2022-12-05T22:59:14.947Z,20.00
2022-12-05T23:01:47.805Z,16.27
2022-12-05T23:04:17.672Z,19.17
2022-12-05T23:06:50.381Z,23.77
2022-12-05T23:09:20.719Z,26.98
2022-12-05T23:11:52.755Z,16.95
2022-12-05T23:14:25.655Z,20.38
2022-12-05T23:16:57.952Z,19.15
2022-12-05T23:19:27.690Z,17.83
2022-12-05T23:21:59.805Z,20.05
2022-12-05T23:24:32.635Z,22.02
2022-12-05T23:27:06.196Z,19.58
2022-12-05T23:29:36.022Z,16.05
2022-12-05T23:32:06.230Z,19.55
2022-12-05T23:34:35.786Z,24.63
2022-12-05T23:37:05.664Z,22.20
2022-12-05T23:39:35.150Z,20.13
2022-12-05T23:42:10.830Z,21.58
2022-12-05T23:44:46.213Z,18.55
2022-12-05T23:47:19.218Z,24.58
2022-12-05T23:49:49.756Z,24.42
2022-12-05T23:52:20.123Z,24.45
2022-12-05T23:54:50.198Z,24.33
2022-12-05T23:57:21.298Z,16.25
2022-12-05T23:59:51.634Z,19.45
